Time;durP1;ratioP1;P1;durP2;ratioP2;P2;SDS_P1;SDS_P2;PMS_P1;PMS_P2;Temp;Humidity;BMP_temperature;BMP_pressure;BME280_temperature;BME280_humidity;BME280_pressure;Samples;Min_cycle;Max_cycle;Signal;HPM_P1;HPM_P2
2022/01/01 00:01:45;;;;;;;35.23;20.07;;;;;;;;;;5054039;28;20326;-78
2022/01/01 00:04:12;;;;;;;33.67;18.40;;;;;;;;;;5053120;28;20282;-79
2022/01/01 00:06:40;;;;;;;30.17;17.87;;;;;;;;;;5053940;28;20231;-79
2022/01/01 00:09:08;;;;;;;35.10;18.00;;;;;;;;;;5053866;28;20286;-78
2022/01/01 00:11:35;;;;;;;32.83;18.97;;;;;;;;;;5054395;28;20238;-78
2022/01/01 00:14:02;;;;;;;27.47;17.37;;;;;;;;;;5054274;28;20282;-79
2022/01/01 00:16:29;;;;;;;30.10;18.43;;;;;;;;;;5054423;28;20224;-78
2022/01/01 00:18:57;;;;;;;30.43;18.60;;;;;;;;;;5053649;28;20253;-79
2022/01/01 00:21:24;;;;;;;28.70;17.43;;;;;;;;;;5054059;28;20282;-78
2022/01/01 00:23:53;;;;;;;34.57;18.33;;;;;;;;;;5046563;28;20308;-78
2022/01/01 00:26:20;;;;;;;32.83;18.50;;;;;;;;;;5034140;28;20287;-78
2022/01/01 00:28:47;;;;;;;28.80;17.90;;;;;;;;;;5052407;28;20282;-78
2022/01/01 00:31:15;;;;;;;31.23;18.03;;;;;;;;;;5053513;28;20758;-78
2022/01/01 00:33:42;;;;;;;29.57;17.93;;;;;;;;;;5053569;28;20635;-78
2022/01/01 00:36:09;;;;;;;32.07;17.20;;;;;;;;;;5071470;28;20294;-79
2022/01/01 00:38:36;;;;;;;32.93;18.20;;;;;;;;;;5072956;28;20245;-79
2022/01/01 00:41:05;;;;;;;37.27;17.77;;;;;;;;;;5073850;28;20286;-78
2022/01/01 00:43:32;;;;;;;41.23;18.47;;;;;;;;;;5069696;28;20933;-78
2022/01/01 00:45:59;;;;;;;33.07;18.43;;;;;;;;;;5053303;28;20242;-78
2022/01/01 00:48:27;;;;;;;36.13;18.17;;;;;;;;;;5053392;28;20734;-78
2022/01/01 00:50:54;;;;;;;35.00;17.67;;;;;;;;;;5053341;28;20314;-78
2022/01/01 00:53:21;;;;;;;31.37;17.20;;;;;;;;;;5052940;28;20290;-78
2022/01/01 00:55:48;;;;;;;34.90;17.70;;;;;;;;;;5053258;28;20251;-79
2022/01/01 00:58:17;;;;;;;27.93;17.37;;;;;;;;;;5042300;28;20239;-79
2022/01/01 01:00:44;;;;;;;27.80;17.17;;;;;;;;;;5048181;28;20318;-79
2022/01/01 01:03:11;;;;;;;29.13;17.70;;;;;;;;;;5053109;28;20278;-79
2022/01/01 01:05:39;;;;;;;29.17;18.37;;;;;;;;;;5052959;28;20199;-79
2022/01/01 01:08:07;;;;;;;30.77;17.63;;;;;;;;;;5052842;28;20203;-78
2022/01/01 01:10:34;;;;;;;32.77;17.63;;;;;;;;;;5040242;28;20256;-79
2022/01/01 01:13:01;;;;;;;29.53;17.77;;;;;;;;;;5052677;28;20286;-79
2022/01/01 01:15:30;;;;;;;27.57;17.00;;;;;;;;;;5033064;28;20768;-78
2022/01/01 01:17:58;;;;;;;29.07;17.80;;;;;;;;;;5032682;28;20270;-78
2022/01/01 01:20:26;;;;;;;27.00;16.90;;;;;;;;;;5032907;28;20193;-79
2022/01/01 01:22:53;;;;;;;25.50;16.67;;;;;;;;;;5043404;28;20280;-79
2022/01/01 01:25:22;;;;;;;27.87;17.10;;;;;;;;;;5033186;28;20630;-79
2022/01/01 01:27:50;;;;;;;28.47;17.00;;;;;;;;;;5032391;28;20196;-78
2022/01/01 01:30:18;;;;;;;23.23;14.70;;;;;;;;;;5036191;28;20593;-79
2022/01/01 01:32:47;;;;;;;26.53;15.80;;;;;;;;;;5036656;28;20634;-78
2022/01/01 01:35:15;;;;;;;20.90;14.30;;;;;;;;;;5052341;28;20238;-79
2022/01/01 01:37:42;;;;;;;22.27;14.47;;;;;;;;;;5072694;28;20203;-79
2022/01/01 01:40:10;;;;;;;19.93;13.63;;;;;;;;;;5072290;28;20222;-79
2022/01/01 01:42:37;;;;;;;20.63;13.50;;;;;;;;;;5050239;28;20738;-78
2022/01/01 01:45:05;;;;;;;22.27;13.33;;;;;;;;;;5052459;28;20235;-78
2022/01/01 01:47:36;;;;;;;18.23;12.80;;;;;;;;;;5052704;28;20207;-77
2022/01/01 01:50:07;;;;;;;21.53;12.73;;;;;;;;;;5051516;28;20289;-78
2022/01/01 01:52:37;;;;;;;17.73;11.93;;;;;;;;;;5052684;28;20235;-78
2022/01/01 01:55:06;;;;;;;18.77;11.63;;;;;;;;;;5052112;28;20574;-78
2022/01/01 01:57:35;;;;;;;17.93;10.73;;;;;;;;;;5052029;28;20632;-78
2022/01/01 02:00:02;;;;;;;19.73;11.63;;;;;;;;;;5051807;28;20278;-79
2022/01/01 02:02:30;;;;;;;15.00;11.03;;;;;;;;;;5051967;28;20322;-78
2022/01/01 02:04:57;;;;;;;15.37;11.33;;;;;;;;;;5051678;28;20290;-79
2022/01/01 02:07:26;;;;;;;18.23;11.43;;;;;;;;;;5051850;28;20235;-78
2022/01/01 02:09:53;;;;;;;15.13;11.17;;;;;;;;;;5052139;28;20263;-78
2022/01/01 02:12:22;;;;;;;15.67;10.47;;;;;;;;;;5051647;28;20287;-78
2022/01/01 02:15:06;;;;;;;17.70;11.27;;;;;;;;;;5050441;28;20546;-78
2022/01/01 02:17:34;;;;;;;15.33;11.03;;;;;;;;;;5051431;28;20290;-78
2022/01/01 02:20:07;;;;;;;17.17;11.03;;;;;;;;;;5051484;28;20617;-78
2022/01/01 02:22:36;;;;;;;17.23;10.90;;;;;;;;;;5051833;28;20287;-78
2022/01/01 02:25:05;;;;;;;16.13;11.53;;;;;;;;;;5051606;28;20210;-78
2022/01/01 02:27:32;;;;;;;16.73;11.10;;;;;;;;;;5052037;28;20576;-78
2022/01/01 02:29:59;;;;;;;17.33;12.10;;;;;;;;;;5051254;28;20311;-78
2022/01/01 02:32:27;;;;;;;19.17;11.47;;;;;;;;;;5040669;28;20291;-78
2022/01/01 02:34:54;;;;;;;16.70;11.43;;;;;;;;;;5045069;28;20286;-78
2022/01/01 02:37:22;;;;;;;17.33;12.47;;;;;;;;;;5051246;28;20303;-78
2022/01/01 02:39:51;;;;;;;17.73;12.33;;;;;;;;;;5051378;28;20287;-78
2022/01/01 02:42:21;;;;;;;19.00;11.47;;;;;;;;;;5039804;28;20219;-78
2022/01/01 02:44:50;;;;;;;14.53;11.53;;;;;;;;;;5031818;28;20227;-78
2022/01/01 02:47:17;;;;;;;15.37;11.50;;;;;;;;;;5031378;28;20200;-77
2022/01/01 02:49:44;;;;;;;15.27;11.53;;;;;;;;;;5031795;28;20290;-77
2022/01/01 02:52:11;;;;;;;20.63;12.40;;;;;;;;;;5031956;28;20227;-78
2022/01/01 02:54:40;;;;;;;18.83;11.97;;;;;;;;;;5031615;28;20342;-78
2022/01/01 02:57:07;;;;;;;15.07;11.30;;;;;;;;;;5038796;28;20726;-78
2022/01/01 02:59:34;;;;;;;18.47;11.50;;;;;;;;;;5051446;28;20283;-78
2022/01/01 03:02:02;;;;;;;16.53;11.27;;;;;;;;;;5052361;28;20381;-78
2022/01/01 03:04:29;;;;;;;14.53;10.97;;;;;;;;;;5057315;28;20626;-78
2022/01/01 03:06:57;;;;;;;14.33;10.67;;;;;;;;;;5056100;28;20286;-77
2022/01/01 03:09:27;;;;;;;16.57;11.53;;;;;;;;;;5055409;28;20294;-78
2022/01/01 03:11:56;;;;;;;18.00;11.13;;;;;;;;;;5055075;28;20219;-77
2022/01/01 03:14:23;;;;;;;17.37;11.03;;;;;;;;;;5037870;28;20287;-77
2022/01/01 03:16:51;;;;;;;15.87;10.40;;;;;;;;;;5035094;28;20291;-77
2022/01/01 03:19:18;;;;;;;14.03;10.53;;;;;;;;;;5053944;28;20215;-77
2022/01/01 03:21:45;;;;;;;13.60;9.60;;;;;;;;;;5075292;28;20222;-77
2022/01/01 03:24:12;;;;;;;13.43;10.10;;;;;;;;;;5075629;28;20294;-78
2022/01/01 03:26:40;;;;;;;15.17;10.50;;;;;;;;;;5063089;28;20228;-77
2022/01/01 03:29:09;;;;;;;14.17;9.87;;;;;;;;;;5052342;28;20196;-77
2022/01/01 03:31:36;;;;;;;13.07;10.57;;;;;;;;;;5054621;28;20259;-77
2022/01/01 03:34:03;;;;;;;14.10;10.70;;;;;;;;;;5055346;28;20287;-78
2022/01/01 03:36:30;;;;;;;14.53;10.13;;;;;;;;;;5055236;28;20637;-77
2022/01/01 03:38:59;;;;;;;14.30;10.27;;;;;;;;;;5054754;28;20303;-77
2022/01/01 03:41:27;;;;;;;13.73;9.87;;;;;;;;;;5055122;28;20198;-77
2022/01/01 03:43:54;;;;;;;16.27;10.50;;;;;;;;;;5054314;28;20203;-77
2022/01/01 03:46:22;;;;;;;14.60;10.30;;;;;;;;;;5054571;28;20298;-78
2022/01/01 03:48:49;;;;;;;15.77;10.40;;;;;;;;;;5054765;28;20232;-77
2022/01/01 03:51:17;;;;;;;16.10;10.60;;;;;;;;;;5054994;28;20270;-78
2022/01/01 03:53:44;;;;;;;15.40;10.60;;;;;;;;;;5054704;28;20286;-77
2022/01/01 03:56:11;;;;;;;15.03;10.27;;;;;;;;;;5053870;28;20247;-77
2022/01/01 03:58:38;;;;;;;14.57;9.67;;;;;;;;;;5054935;28;20573;-77
2022/01/01 04:01:06;;;;;;;13.87;10.80;;;;;;;;;;5046719;28;20248;-77
2022/01/01 04:03:34;;;;;;;11.97;10.13;;;;;;;;;;5034882;28;20296;-77
2022/01/01 04:06:01;;;;;;;15.40;10.63;;;;;;;;;;5034517;28;20232;-78
2022/01/01 04:08:30;;;;;;;16.40;10.87;;;;;;;;;;5034559;28;20291;-78
2022/01/01 04:10:58;;;;;;;16.17;10.57;;;;;;;;;;5034503;28;20274;-78
2022/01/01 04:13:25;;;;;;;14.67;10.90;;;;;;;;;;5033292;28;20236;-78
2022/01/01 04:15:52;;;;;;;13.00;9.97;;;;;;;;;;5049040;28;20565;-78
2022/01/01 04:18:27;;;;;;;14.60;10.27;;;;;;;;;;5055901;28;20298;-78
2022/01/01 04:20:56;;;;;;;13.30;10.17;;;;;;;;;;5073913;28;20198;-78
2022/01/01 04:23:24;;;;;;;14.13;10.57;;;;;;;;;;5070269;28;20291;-78
2022/01/01 04:25:52;;;;;;;13.83;10.47;;;;;;;;;;5054223;28;20199;-78
2022/01/01 04:28:19;;;;;;;15.33;10.70;;;;;;;;;;5054382;28;20199;-78
2022/01/01 04:30:46;;;;;;;13.47;9.60;;;;;;;;;;5053692;28;20321;-78
2022/01/01 04:33:13;;;;;;;12.63;10.00;;;;;;;;;;5054264;28;20239;-78
2022/01/01 04:35:41;;;;;;;13.23;9.97;;;;;;;;;;5054281;28;20289;-77
2022/01/01 04:38:21;;;;;;;14.13;10.30;;;;;;;;;;5053777;28;20286;-78
2022/01/01 04:40:49;;;;;;;12.17;9.67;;;;;;;;;;5054057;28;20207;-78
2022/01/01 04:43:16;;;;;;;14.30;9.83;;;;;;;;;;5053518;28;20786;-78
2022/01/01 04:45:43;;;;;;;14.40;9.90;;;;;;;;;;5053816;28;20614;-77
2022/01/01 04:48:10;;;;;;;15.60;10.40;;;;;;;;;;5053491;28;20724;-77
2022/01/01 04:50:37;;;;;;;13.03;9.57;;;;;;;;;;5053805;28;20333;-78
2022/01/01 04:53:04;;;;;;;12.87;9.90;;;;;;;;;;5052670;28;20641;-78
2022/01/01 04:55:33;;;;;;;11.90;8.57;;;;;;;;;;5053586;28;20231;-78
2022/01/01 04:58:00;;;;;;;11.97;9.17;;;;;;;;;;5053224;28;20245;-77
2022/01/01 05:00:28;;;;;;;12.90;8.93;;;;;;;;;;5053089;28;20238;-77
2022/01/01 05:02:55;;;;;;;13.97;9.67;;;;;;;;;;5053602;28;20702;-77
2022/01/01 05:05:22;;;;;;;13.40;9.77;;;;;;;;;;5053568;28;20237;-77
2022/01/01 05:07:50;;;;;;;12.63;9.50;;;;;;;;;;5053688;28;20290;-77
2022/01/01 05:10:17;;;;;;;10.77;8.80;;;;;;;;;;5052976;28;20247;-77
2022/01/01 05:12:46;;;;;;;12.27;9.10;;;;;;;;;;5053216;28;20258;-77
2022/01/01 05:15:13;;;;;;;12.53;10.07;;;;;;;;;;5053366;28;20240;-78
2022/01/01 05:17:40;;;;;;;14.87;10.40;;;;;;;;;;5053606;28;20291;-78
2022/01/01 05:20:08;;;;;;;12.63;9.97;;;;;;;;;;5069047;28;20243;-78
2022/01/01 05:22:35;;;;;;;12.47;9.60;;;;;;;;;;5056290;28;20284;-78
2022/01/01 05:25:02;;;;;;;14.33;9.60;;;;;;;;;;5035206;28;20298;-78
2022/01/01 05:27:31;;;;;;;12.20;9.43;;;;;;;;;;5032566;28;20232;-78
2022/01/01 05:30:00;;;;;;;14.30;10.40;;;;;;;;;;5033265;28;20258;-78
2022/01/01 05:32:28;;;;;;;12.50;9.67;;;;;;;;;;5032943;28;20228;-77
2022/01/01 05:34:55;;;;;;;13.53;10.37;;;;;;;;;;5032986;28;20211;-77
2022/01/01 05:37:22;;;;;;;12.27;9.77;;;;;;;;;;5032586;28;20684;-78
2022/01/01 05:39:49;;;;;;;13.03;10.07;;;;;;;;;;5032904;28;20652;-77
2022/01/01 05:42:16;;;;;;;12.33;10.30;;;;;;;;;;5032578;28;20672;-77
2022/01/01 05:44:43;;;;;;;14.40;10.03;;;;;;;;;;5043884;28;20283;-78
2022/01/01 05:47:12;;;;;;;13.87;10.43;;;;;;;;;;5043141;28;20294;-78
2022/01/01 05:49:39;;;;;;;16.13;11.17;;;;;;;;;;5032613;28;20280;-78
2022/01/01 05:52:08;;;;;;;15.57;11.00;;;;;;;;;;5035098;28;20221;-77
2022/01/01 05:54:35;;;;;;;13.83;10.70;;;;;;;;;;5041724;28;20668;-77
2022/01/01 05:57:02;;;;;;;15.10;10.87;;;;;;;;;;5041183;28;20354;-77
2022/01/01 05:59:30;;;;;;;16.37;11.00;;;;;;;;;;5052790;28;20242;-77
2022/01/01 06:01:57;;;;;;;16.63;11.37;;;;;;;;;;5041974;28;20314;-77
2022/01/01 06:04:25;;;;;;;16.07;11.20;;;;;;;;;;5043668;28;20699;-77
2022/01/01 06:06:53;;;;;;;18.20;12.43;;;;;;;;;;5052426;28;20227;-78
2022/01/01 06:09:20;;;;;;;19.63;11.87;;;;;;;;;;5052411;28;20294;-78
2022/01/01 06:11:47;;;;;;;15.30;11.70;;;;;;;;;;5051490;28;20314;-78
2022/01/01 06:14:16;;;;;;;14.20;11.47;;;;;;;;;;5052392;28;20231;-78
2022/01/01 06:16:43;;;;;;;14.73;11.47;;;;;;;;;;5052088;28;20285;-78
2022/01/01 06:19:10;;;;;;;15.17;11.00;;;;;;;;;;5060271;28;20211;-78
2022/01/01 06:21:39;;;;;;;18.23;11.70;;;;;;;;;;5071695;28;20249;-78
2022/01/01 06:24:06;;;;;;;16.83;11.83;;;;;;;;;;5072067;28;20290;-78
2022/01/01 06:26:33;;;;;;;21.33;13.40;;;;;;;;;;5069152;28;20243;-78
2022/01/01 06:29:00;;;;;;;18.93;13.30;;;;;;;;;;5051677;28;20290;-78
2022/01/01 06:31:28;;;;;;;16.93;12.47;;;;;;;;;;5051698;28;20311;-78
2022/01/01 06:33:55;;;;;;;18.60;12.87;;;;;;;;;;5051604;28;20210;-78
2022/01/01 06:36:22;;;;;;;18.23;11.83;;;;;;;;;;5051371;28;20564;-78
2022/01/01 06:38:51;;;;;;;17.50;12.77;;;;;;;;;;5051801;28;20294;-78
2022/01/01 06:41:19;;;;;;;16.57;12.50;;;;;;;;;;5051267;28;20287;-78
2022/01/01 06:43:46;;;;;;;16.23;12.20;;;;;;;;;;5051852;28;20204;-78
2022/01/01 06:46:14;;;;;;;18.30;12.47;;;;;;;;;;5051486;28;20295;-78
2022/01/01 06:48:41;;;;;;;16.80;12.47;;;;;;;;;;5051394;28;20727;-78
2022/01/01 06:51:08;;;;;;;18.43;13.13;;;;;;;;;;5051638;28;20635;-78
2022/01/01 06:53:35;;;;;;;18.63;13.63;;;;;;;;;;5051055;28;20290;-78
2022/01/01 06:56:06;;;;;;;17.07;12.97;;;;;;;;;;5051179;28;20310;-78
2022/01/01 06:58:33;;;;;;;18.20;12.30;;;;;;;;;;5051907;28;20197;-79
2022/01/01 07:01:01;;;;;;;20.23;12.90;;;;;;;;;;5051525;28;20673;-78
2022/01/01 07:03:28;;;;;;;20.37;13.03;;;;;;;;;;5051870;28;20290;-78
2022/01/01 07:05:55;;;;;;;20.37;13.13;;;;;;;;;;5051242;28;20295;-78
2022/01/01 07:08:22;;;;;;;17.73;12.67;;;;;;;;;;5051321;28;20217;-78
2022/01/01 07:10:49;;;;;;;15.87;12.43;;;;;;;;;;5051187;28;20232;-78
2022/01/01 07:13:18;;;;;;;16.30;12.77;;;;;;;;;;5051773;28;20311;-78
2022/01/01 07:15:46;;;;;;;18.53;12.53;;;;;;;;;;5051015;28;20202;-78
2022/01/01 07:18:13;;;;;;;15.57;11.70;;;;;;;;;;5051610;28;20290;-78
2022/01/01 07:20:40;;;;;;;16.53;11.40;;;;;;;;;;5051573;28;20325;-78
2022/01/01 07:23:07;;;;;;;14.90;11.47;;;;;;;;;;5050917;28;20239;-78
2022/01/01 07:25:34;;;;;;;15.80;11.47;;;;;;;;;;5051435;28;20318;-78
2022/01/01 07:28:02;;;;;;;16.77;10.77;;;;;;;;;;5045357;28;20714;-78
2022/01/01 07:30:31;;;;;;;14.37;10.77;;;;;;;;;;5031318;28;20293;-78
2022/01/01 07:32:58;;;;;;;13.93;10.30;;;;;;;;;;5031000;28;20783;-78
2022/01/01 07:35:26;;;;;;;16.53;11.13;;;;;;;;;;5031606;28;20262;-78
2022/01/01 07:37:53;;;;;;;15.63;11.10;;;;;;;;;;5031058;28;20229;-78
2022/01/01 07:40:21;;;;;;;16.03;11.00;;;;;;;;;;5031691;28;20218;-78
2022/01/01 07:42:48;;;;;;;16.57;10.97;;;;;;;;;;5035331;28;20283;-78
2022/01/01 07:45:16;;;;;;;14.63;10.07;;;;;;;;;;5050117;28;20205;-78
2022/01/01 07:47:44;;;;;;;14.13;8.93;;;;;;;;;;5051570;28;20289;-77
2022/01/01 07:50:12;;;;;;;12.77;9.10;;;;;;;;;;5054145;28;20295;-77
2022/01/01 07:52:39;;;;;;;12.60;9.03;;;;;;;;;;5054807;28;20590;-77
2022/01/01 07:55:07;;;;;;;11.67;8.80;;;;;;;;;;5055146;28;20614;-77
2022/01/01 07:57:34;;;;;;;10.03;8.43;;;;;;;;;;5054453;28;20306;-77
2022/01/01 08:00:01;;;;;;;11.30;9.37;;;;;;;;;;5054596;28;20290;-77
2022/01/01 08:02:28;;;;;;;11.30;8.83;;;;;;;;;;5054445;28;20754;-77
2022/01/01 08:04:57;;;;;;;11.00;8.60;;;;;;;;;;5054951;28;20307;-77
2022/01/01 08:07:24;;;;;;;9.37;7.73;;;;;;;;;;5053977;28;20290;-77
2022/01/01 08:09:51;;;;;;;9.27;8.00;;;;;;;;;;5054709;28;20221;-77
2022/01/01 08:12:18;;;;;;;9.60;8.20;;;;;;;;;;5053336;28;20211;-77
2022/01/01 08:14:46;;;;;;;10.17;8.23;;;;;;;;;;5054778;28;20291;-77
2022/01/01 08:17:13;;;;;;;9.57;7.77;;;;;;;;;;5054193;28;20303;-77
2022/01/01 08:19:40;;;;;;;9.10;7.70;;;;;;;;;;5054130;28;20243;-77
2022/01/01 08:22:12;;;;;;;10.03;7.87;;;;;;;;;;5053706;28;20912;-77
2022/01/01 08:24:39;;;;;;;9.10;7.33;;;;;;;;;;5054200;28;20667;-77
2022/01/01 08:27:07;;;;;;;9.83;7.33;;;;;;;;;;5051232;28;20227;-78
2022/01/01 08:29:34;;;;;;;8.90;7.20;;;;;;;;;;5034145;28;20235;-78
2022/01/01 08:32:01;;;;;;;9.97;7.60;;;;;;;;;;5034133;28;20652;-77
2022/01/01 08:34:29;;;;;;;8.93;7.30;;;;;;;;;;5033776;28;20239;-77
2022/01/01 08:36:56;;;;;;;11.77;7.43;;;;;;;;;;5033491;28;20235;-77
2022/01/01 08:39:24;;;;;;;9.33;7.07;;;;;;;;;;5049269;28;20242;-77
2022/01/01 08:41:52;;;;;;;8.50;6.90;;;;;;;;;;5054104;28;20282;-77
2022/01/01 08:44:19;;;;;;;8.20;6.70;;;;;;;;;;5053923;28;20286;-77
2022/01/01 08:46:46;;;;;;;9.37;6.40;;;;;;;;;;5053942;28;20584;-77
2022/01/01 08:49:13;;;;;;;7.10;6.20;;;;;;;;;;5053774;28;20204;-77
2022/01/01 08:51:43;;;;;;;8.90;6.33;;;;;;;;;;5053391;28;20295;-77
2022/01/01 08:54:11;;;;;;;7.70;6.03;;;;;;;;;;5052911;28;20196;-77
2022/01/01 08:56:40;;;;;;;7.63;5.77;;;;;;;;;;5052843;28;20718;-78
2022/01/01 08:59:07;;;;;;;7.97;5.40;;;;;;;;;;5050652;28;20291;-78
2022/01/01 09:01:34;;;;;;;5.97;5.13;;;;;;;;;;5052349;28;20338;-77
2022/01/01 09:04:02;;;;;;;6.40;5.47;;;;;;;;;;5053003;28;20202;-77
2022/01/01 09:06:29;;;;;;;6.37;5.50;;;;;;;;;;5053140;28;20733;-78
2022/01/01 09:08:56;;;;;;;6.63;5.53;;;;;;;;;;5052357;28;20730;-78
2022/01/01 09:11:24;;;;;;;6.90;5.50;;;;;;;;;;5050377;28;20645;-77
2022/01/01 09:13:52;;;;;;;7.03;5.43;;;;;;;;;;5052447;28;20303;-78
2022/01/01 09:16:25;;;;;;;6.73;5.63;;;;;;;;;;5053514;28;20291;-78
2022/01/01 09:18:52;;;;;;;7.40;5.73;;;;;;;;;;5052308;28;20278;-77
2022/01/01 09:21:19;;;;;;;6.37;5.73;;;;;;;;;;5052782;28;20743;-77
2022/01/01 09:23:46;;;;;;;7.40;5.40;;;;;;;;;;5053178;28;20223;-78
2022/01/01 09:26:13;;;;;;;8.17;5.90;;;;;;;;;;5052903;28;20230;-78
2022/01/01 09:28:41;;;;;;;7.43;5.80;;;;;;;;;;5052492;28;20291;-78
2022/01/01 09:31:09;;;;;;;7.23;6.00;;;;;;;;;;5053160;28;20227;-78
2022/01/01 09:33:36;;;;;;;6.90;5.87;;;;;;;;;;5032641;28;20307;-78
2022/01/01 09:36:05;;;;;;;6.53;5.83;;;;;;;;;;5033144;28;20295;-78
2022/01/01 09:38:32;;;;;;;7.53;5.83;;;;;;;;;;5042376;28;20200;-78
2022/01/01 09:41:00;;;;;;;6.57;5.53;;;;;;;;;;5033040;28;20260;-78
2022/01/01 09:43:28;;;;;;;8.20;5.97;;;;;;;;;;5033066;28;20228;-78
2022/01/01 09:45:55;;;;;;;8.20;6.00;;;;;;;;;;5040727;28;20238;-78
2022/01/01 09:48:24;;;;;;;8.07;6.13;;;;;;;;;;5052069;28;20322;-78
2022/01/01 09:50:54;;;;;;;7.10;5.57;;;;;;;;;;5036822;28;20283;-78
2022/01/01 09:53:23;;;;;;;10.03;6.10;;;;;;;;;;5032301;28;20224;-78
2022/01/01 09:55:50;;;;;;;8.50;6.40;;;;;;;;;;5041219;28;20223;-78
2022/01/01 09:58:18;;;;;;;7.20;5.80;;;;;;;;;;5052153;28;20225;-78
2022/01/01 10:00:45;;;;;;;9.13;6.20;;;;;;;;;;5051865;28;20318;-78
2022/01/01 10:03:13;;;;;;;7.63;5.93;;;;;;;;;;5050412;28;20199;-78
2022/01/01 10:05:55;;;;;;;7.77;5.97;;;;;;;;;;5051463;28;20684;-78
2022/01/01 10:08:25;;;;;;;7.60;5.93;;;;;;;;;;5045509;28;20772;-78
2022/01/01 10:10:53;;;;;;;7.27;6.30;;;;;;;;;;5032542;28;20283;-77
2022/01/01 10:13:26;;;;;;;7.97;6.37;;;;;;;;;;5051571;28;20755;-78
2022/01/01 10:15:54;;;;;;;7.93;6.20;;;;;;;;;;5047453;28;20286;-78
2022/01/01 10:18:25;;;;;;;7.53;6.13;;;;;;;;;;5053355;28;20239;-78
2022/01/01 10:20:56;;;;;;;8.33;6.20;;;;;;;;;;5071476;28;20234;-78
2022/01/01 10:23:27;;;;;;;6.90;6.20;;;;;;;;;;5032405;28;20287;-78
2022/01/01 10:28:54;;;;;;;7.37;5.87;;;;;;;;;;5051696;28;20281;-78
2022/01/01 10:31:22;;;;;;;8.17;6.20;;;;;;;;;;5049404;28;20223;-78
2022/01/01 10:33:49;;;;;;;7.20;5.90;;;;;;;;;;5051570;28;20314;-78
2022/01/01 10:36:16;;;;;;;8.57;6.20;;;;;;;;;;5051783;28;20290;-78
2022/01/01 10:38:45;;;;;;;7.30;6.47;;;;;;;;;;5051558;28;20250;-78
2022/01/01 10:41:16;;;;;;;6.23;5.40;;;;;;;;;;5050239;28;20296;-78
2022/01/01 10:43:44;;;;;;;8.03;5.87;;;;;;;;;;5038197;28;20330;-78
2022/01/01 10:46:13;;;;;;;8.20;6.10;;;;;;;;;;5040421;28;20753;-78
2022/01/01 10:48:53;;;;;;;8.37;5.93;;;;;;;;;;5036845;28;20211;-78
2022/01/01 10:51:20;;;;;;;6.70;5.37;;;;;;;;;;5031592;28;20197;-76
2022/01/01 10:53:50;;;;;;;7.43;5.90;;;;;;;;;;5043724;28;20720;-77
2022/01/01 10:56:19;;;;;;;7.33;5.90;;;;;;;;;;5046325;28;20595;-77
2022/01/01 10:58:47;;;;;;;8.70;5.37;;;;;;;;;;5047151;28;20286;-77
2022/01/01 11:01:14;;;;;;;6.67;5.60;;;;;;;;;;5040213;28;20730;-78
2022/01/01 11:03:42;;;;;;;6.70;5.60;;;;;;;;;;5039351;28;20684;-78
2022/01/01 11:06:11;;;;;;;7.43;5.50;;;;;;;;;;5048311;28;20286;-78
2022/01/01 11:08:39;;;;;;;8.53;5.47;;;;;;;;;;5049827;28;20559;-78
2022/01/01 11:11:06;;;;;;;6.72;5.47;;;;;;;;;;5049080;28;20650;-78
2022/01/01 11:13:35;;;;;;;7.45;5.60;;;;;;;;;;5038242;28;20247;-78
2022/01/01 11:16:03;;;;;;;7.60;5.65;;;;;;;;;;5048494;28;20739;-78
2022/01/01 11:18:30;;;;;;;6.85;5.35;;;;;;;;;;5048063;28;20250;-78
2022/01/01 11:20:58;;;;;;;9.13;5.60;;;;;;;;;;5050266;28;20286;-78
2022/01/01 11:23:27;;;;;;;7.45;5.47;;;;;;;;;;5039463;28;20283;-78
2022/01/01 11:25:54;;;;;;;5.93;5.00;;;;;;;;;;5036374;28;20307;-78
2022/01/01 11:28:22;;;;;;;8.65;5.70;;;;;;;;;;5044469;28;20196;-77
2022/01/01 11:30:52;;;;;;;7.47;4.88;;;;;;;;;;5044396;28;20287;-77
2022/01/01 11:33:20;;;;;;;7.32;5.45;;;;;;;;;;5037585;28;20248;-77
2022/01/01 11:35:53;;;;;;;6.40;5.40;;;;;;;;;;5044471;28;20282;-77
2022/01/01 11:38:20;;;;;;;6.68;4.88;;;;;;;;;;5034359;28;20204;-77
2022/01/01 11:40:55;;;;;;;8.43;5.30;;;;;;;;;;5047772;28;20227;-77
2022/01/01 11:43:36;;;;;;;6.25;5.03;;;;;;;;;;5042592;28;20211;-77
2022/01/01 11:46:07;;;;;;;6.57;5.20;;;;;;;;;;5038764;28;20739;-78
2022/01/01 11:48:36;;;;;;;8.05;5.63;;;;;;;;;;5047122;28;20231;-78
2022/01/01 11:51:22;;;;;;;8.55;5.47;;;;;;;;;;5046245;28;20234;-78
2022/01/01 11:54:19;;;;;;;6.05;5.13;;;;;;;;;;5045595;28;20314;-79
2022/01/01 11:57:10;;;;;;;7.43;5.72;;;;;;;;;;5010145;28;20227;-79
2022/01/01 11:59:52;;;;;;;6.43;5.38;;;;;;;;;;5010090;28;20292;-79
2022/01/01 12:02:49;;;;;;;8.70;5.47;;;;;;;;;;5004934;28;20283;-79
2022/01/01 12:05:29;;;;;;;8.95;5.03;;;;;;;;;;5008432;28;20640;-78
2022/01/01 12:07:58;;;;;;;6.53;5.03;;;;;;;;;;5011600;28;20954;-78
2022/01/01 12:10:26;;;;;;;7.70;4.97;;;;;;;;;;4999119;28;20206;-79
2022/01/01 12:12:54;;;;;;;7.30;5.15;;;;;;;;;;5009730;28;20275;-79
2022/01/01 12:15:26;;;;;;;5.75;4.80;;;;;;;;;;5012283;28;20359;-79
2022/01/01 12:17:56;;;;;;;6.30;4.93;;;;;;;;;;5012083;28;20288;-78
2022/01/01 12:20:26;;;;;;;7.03;5.28;;;;;;;;;;5030442;28;20224;-79
2022/01/01 12:22:54;;;;;;;6.65;4.90;;;;;;;;;;5013186;28;20795;-79
2022/01/01 12:25:23;;;;;;;7.60;5.00;;;;;;;;;;5012311;28;20634;-79
2022/01/01 12:27:51;;;;;;;6.50;4.53;;;;;;;;;;5001432;28;20296;-79
2022/01/01 12:30:31;;;;;;;8.25;5.15;;;;;;;;;;5014975;28;20235;-79
2022/01/01 12:32:58;;;;;;;7.13;5.07;;;;;;;;;;5053531;28;20283;-79
2022/01/01 12:35:39;;;;;;;5.72;4.57;;;;;;;;;;5052470;28;20281;-79
2022/01/01 12:38:08;;;;;;;7.80;5.45;;;;;;;;;;5053755;28;20222;-79
2022/01/01 12:41:13;;;;;;;8.38;5.60;;;;;;;;;;5053009;28;20242;-79
2022/01/01 12:44:04;;;;;;;5.82;4.90;;;;;;;;;;5047359;28;20208;-79
2022/01/01 12:46:32;;;;;;;7.22;5.18;;;;;;;;;;5040391;28;20207;-79
2022/01/01 12:49:00;;;;;;;7.33;5.17;;;;;;;;;;5045203;28;20299;-79
2022/01/01 12:51:30;;;;;;;7.32;5.20;;;;;;;;;;5051315;28;20215;-79
2022/01/01 12:53:58;;;;;;;6.17;4.90;;;;;;;;;;5052715;28;20742;-79
2022/01/01 12:56:25;;;;;;;7.53;4.50;;;;;;;;;;5045785;28;20223;-79
2022/01/01 12:58:54;;;;;;;8.80;4.80;;;;;;;;;;5049410;28;20398;-79
2022/01/01 13:01:21;;;;;;;6.77;5.20;;;;;;;;;;5051294;28;20318;-78
2022/01/01 13:03:50;;;;;;;7.13;4.97;;;;;;;;;;5048423;28;20735;-79
2022/01/01 13:06:24;;;;;;;6.10;4.97;;;;;;;;;;5033239;28;20232;-79
2022/01/01 13:08:53;;;;;;;6.87;5.30;;;;;;;;;;5034664;28;20204;-79
2022/01/01 13:11:21;;;;;;;7.93;4.90;;;;;;;;;;5044074;28;20697;-79
2022/01/01 13:13:50;;;;;;;5.50;4.90;;;;;;;;;;5046704;28;20680;-79
2022/01/01 13:16:18;;;;;;;6.07;4.80;;;;;;;;;;5034208;28;20254;-79
2022/01/01 13:18:45;;;;;;;8.40;4.87;;;;;;;;;;5052532;28;20203;-79
2022/01/01 13:21:12;;;;;;;7.10;4.97;;;;;;;;;;5053034;28;20310;-79
2022/01/01 13:23:40;;;;;;;8.27;5.37;;;;;;;;;;5041536;28;20184;-79
2022/01/01 13:26:08;;;;;;;6.40;4.97;;;;;;;;;;5047958;28;20388;-79
2022/01/01 13:28:36;;;;;;;7.17;5.33;;;;;;;;;;5052317;28;20288;-78
2022/01/01 13:31:04;;;;;;;7.80;5.43;;;;;;;;;;5052654;28;20204;-78
2022/01/01 13:33:32;;;;;;;7.30;5.60;;;;;;;;;;5037113;28;20307;-78
2022/01/01 13:36:03;;;;;;;7.23;5.43;;;;;;;;;;5052326;28;20203;-78
2022/01/01 13:38:31;;;;;;;7.03;5.47;;;;;;;;;;5049726;28;20901;-78
2022/01/01 13:41:00;;;;;;;8.40;5.87;;;;;;;;;;5032488;28;20239;-78
2022/01/01 13:43:30;;;;;;;7.77;5.70;;;;;;;;;;5048234;28;20219;-78
2022/01/01 13:46:06;;;;;;;8.57;5.33;;;;;;;;;;5051389;28;20576;-78
2022/01/01 13:48:41;;;;;;;8.73;5.37;;;;;;;;;;5052278;28;20659;-78
2022/01/01 13:51:08;;;;;;;7.20;5.17;;;;;;;;;;5051997;28;20249;-78
2022/01/01 13:53:35;;;;;;;8.77;5.17;;;;;;;;;;5051661;28;20330;-78
2022/01/01 13:56:08;;;;;;;8.73;5.40;;;;;;;;;;5035574;28;20251;-78
2022/01/01 13:58:40;;;;;;;6.87;5.10;;;;;;;;;;5047976;28;20667;-78
2022/01/01 14:01:07;;;;;;;7.13;4.93;;;;;;;;;;5048960;28;20235;-78
2022/01/01 14:03:35;;;;;;;6.57;4.90;;;;;;;;;;5051940;28;20647;-78
2022/01/01 14:06:03;;;;;;;7.73;5.07;;;;;;;;;;5052130;28;20742;-78
2022/01/01 14:08:30;;;;;;;8.93;5.67;;;;;;;;;;5052092;28;20253;-78
2022/01/01 14:10:58;;;;;;;8.73;5.20;;;;;;;;;;5052338;28;20637;-78
2022/01/01 14:13:29;;;;;;;6.33;5.10;;;;;;;;;;5051545;28;20204;-78
2022/01/01 14:15:57;;;;;;;7.37;5.40;;;;;;;;;;5036015;28;20292;-76
2022/01/01 14:18:28;;;;;;;7.60;5.05;;;;;;;;;;5044201;28;20468;-78
2022/01/01 14:20:56;;;;;;;6.50;4.87;;;;;;;;;;5051302;28;20203;-78
2022/01/01 14:23:24;;;;;;;8.10;5.13;;;;;;;;;;5039533;28;20232;-78
2022/01/01 14:25:55;;;;;;;7.03;4.93;;;;;;;;;;5038230;28;20204;-78
2022/01/01 14:28:23;;;;;;;6.40;4.90;;;;;;;;;;5032109;28;20291;-78
2022/01/01 14:30:52;;;;;;;6.87;4.63;;;;;;;;;;5047643;28;20292;-78
2022/01/01 14:33:21;;;;;;;9.00;5.00;;;;;;;;;;5051744;28;20199;-78
2022/01/01 14:35:48;;;;;;;5.87;4.33;;;;;;;;;;5052333;28;20307;-78
2022/01/01 14:38:15;;;;;;;7.90;5.40;;;;;;;;;;5051580;28;20295;-78
2022/01/01 14:40:43;;;;;;;6.83;4.80;;;;;;;;;;5051785;28;20286;-78